KSGU/SGU METAR and TAF weather

Enter ICAO airport designator
Station Type Date Time Source
KSGU METAR 2020/07/05 03:56 UTC NOAA

KSGU 050356Z AUTO 27005KT 10SM CLR 34/01 A2993 RMK AO2 SLP091 T03440011


Station Type Date Time Source
KSGU Decoded METAR 2020/07/05 03:56 UTC NOAA

St George, St George Municipal Airport, UT, United States (KSGU) 37-05N 113-36W
Jul 04, 2020 - 11:56 PM EDT / 2020.07.05 0356 UTC
Wind: from the W (270 degrees) at 6 MPH (5 KT):0
Visibility: 10 mile(s):0
Sky conditions: clear
Temperature: 93.9 F (34.4 C)
Dew Point: 34.0 F (1.1 C)
Relative Humidity: 12%
Pressure (altimeter): 29.93 in. Hg (1013 hPa)
ob: KSGU 050356Z AUTO 27005KT 10SM CLR 34/01 A2993 RMK AO2 SLP091 T03440011
cycle: 4

Station Type Date Time Source
KSGU TAF 2020/07/04 18:22 UTC NOAA

TAF KSGU 041720Z 0418/0518 VRB04KT P6SM SKC
FM050500 26005KT P6SM SKC
FM051100 08005KT P6SM SKC

Example: see airport list